Главная страница
METAR-TAF:

METAR-TAF

Аэропорты :

Вашингтон, Пенсильвания, США

широта: 40-08N, долгота: 080-17W, высота над уровнем моря: 361 м

Текущие метеонаблюдения

Эта сводка был подготовлена 30 минут назад, в 21:56 UTC
Ветер 7 Узел от юго-западный с порывами до 15 Узел
Температура 13°C
Влажность 38%
Давление 1019 hPa
Видимость: 16.1 км
небольшая облачность на высоте 6500 фута

METAR: KAFJ 222156Z AUTO 22007G15KT 10SM FEW065 13/M01 A3009 RMK AO2 SLP196 T01331011

Время: 18:26 (22:26 UTC)


TAF: отсутствует

Метеонаблюдения и прогнозы для более 4000 аэропортов (сводки METAR и TAF).

Имеющиеся станции представлены на карте желтыми и красными точками.

Чтобы увидеть название станции, наведите на нее мышь.

Затем щелкните, чтобы увидеть метеонаблюдения и метеопрогнозы.

Управление картой: чтобы увеличить масштаб, щелкните зеленые кнопки с черным крестиком; чтобы уменьшить масштаб, щелкните зеленую кнопку с тире; для просмотра соседних карт щелкайте зеленые стрелки.


METAR-TAF: